sensor_id;sensor_type;location;lat;lon;timestamp;P1;durP1;ratioP1;P2;durP2;ratioP2
20381;SDS011;10350;51.280;12.400;2023-06-22T00:00:49;4.32;;;2.78;;
20381;SDS011;10350;51.280;12.400;2023-06-22T00:03:16;3.55;;;2.80;;
20381;SDS011;10350;51.280;12.400;2023-06-22T00:05:43;5.55;;;3.90;;
20381;SDS011;10350;51.280;12.400;2023-06-22T00:08:08;5.53;;;3.22;;
20381;SDS011;10350;51.280;12.400;2023-06-22T00:10:35;3.13;;;2.75;;
20381;SDS011;10350;51.280;12.400;2023-06-22T00:13:01;6.18;;;3.55;;
20381;SDS011;10350;51.280;12.400;2023-06-22T00:15:27;6.80;;;3.40;;
20381;SDS011;10350;51.280;12.400;2023-06-22T00:17:53;4.07;;;3.30;;
20381;SDS011;10350;51.280;12.400;2023-06-22T00:20:19;4.93;;;3.70;;
20381;SDS011;10350;51.280;12.400;2023-06-22T00:22:45;5.00;;;3.20;;
20381;SDS011;10350;51.280;12.400;2023-06-22T00:25:12;4.57;;;3.23;;
20381;SDS011;10350;51.280;12.400;2023-06-22T00:27:38;4.18;;;3.08;;
20381;SDS011;10350;51.280;12.400;2023-06-22T00:30:04;4.93;;;3.60;;
20381;SDS011;10350;51.280;12.400;2023-06-22T00:32:31;4.47;;;3.33;;
20381;SDS011;10350;51.280;12.400;2023-06-22T00:34:57;4.75;;;3.78;;
20381;SDS011;10350;51.280;12.400;2023-06-22T00:37:23;4.63;;;3.53;;
20381;SDS011;10350;51.280;12.400;2023-06-22T00:39:50;4.13;;;3.33;;
20381;SDS011;10350;51.280;12.400;2023-06-22T00:42:17;3.50;;;3.20;;
20381;SDS011;10350;51.280;12.400;2023-06-22T00:44:43;5.45;;;4.10;;
20381;SDS011;10350;51.280;12.400;2023-06-22T00:47:10;5.65;;;3.38;;
20381;SDS011;10350;51.280;12.400;2023-06-22T00:49:37;6.50;;;2.92;;
20381;SDS011;10350;51.280;12.400;2023-06-22T00:52:04;5.95;;;3.42;;
20381;SDS011;10350;51.280;12.400;2023-06-22T00:54:34;6.60;;;3.65;;
20381;SDS011;10350;51.280;12.400;2023-06-22T00:57:01;4.07;;;3.15;;
20381;SDS011;10350;51.280;12.400;2023-06-22T00:59:27;4.22;;;3.40;;
20381;SDS011;10350;51.280;12.400;2023-06-22T01:01:53;4.43;;;3.83;;
20381;SDS011;10350;51.280;12.400;2023-06-22T01:04:19;4.95;;;2.90;;
20381;SDS011;10350;51.280;12.400;2023-06-22T01:06:55;4.55;;;3.65;;
20381;SDS011;10350;51.280;12.400;2023-06-22T01:09:28;5.03;;;3.78;;
20381;SDS011;10350;51.280;12.400;2023-06-22T01:11:57;8.70;;;3.75;;
20381;SDS011;10350;51.280;12.400;2023-06-22T01:16:50;9.20;;;3.55;;
20381;SDS011;10350;51.280;12.400;2023-06-22T01:19:27;7.40;;;3.85;;
20381;SDS011;10350;51.280;12.400;2023-06-22T01:21:55;4.95;;;3.38;;
20381;SDS011;10350;51.280;12.400;2023-06-22T01:24:30;6.40;;;3.80;;
20381;SDS011;10350;51.280;12.400;2023-06-22T01:27:05;7.88;;;4.03;;
20381;SDS011;10350;51.280;12.400;2023-06-22T01:29:35;4.65;;;3.35;;
20381;SDS011;10350;51.280;12.400;2023-06-22T01:32:02;10.23;;;3.42;;
20381;SDS011;10350;51.280;12.400;2023-06-22T01:34:30;4.57;;;3.13;;
20381;SDS011;10350;51.280;12.400;2023-06-22T01:36:56;3.67;;;2.70;;
20381;SDS011;10350;51.280;12.400;2023-06-22T01:39:23;4.50;;;3.15;;
20381;SDS011;10350;51.280;12.400;2023-06-22T01:41:50;4.75;;;3.55;;
20381;SDS011;10350;51.280;12.400;2023-06-22T01:44:16;6.82;;;3.92;;
20381;SDS011;10350;51.280;12.400;2023-06-22T01:46:42;9.38;;;3.95;;
20381;SDS011;10350;51.280;12.400;2023-06-22T01:49:09;4.65;;;3.60;;
20381;SDS011;10350;51.280;12.400;2023-06-22T01:51:35;3.95;;;2.85;;
20381;SDS011;10350;51.280;12.400;2023-06-22T01:54:01;7.20;;;3.83;;
20381;SDS011;10350;51.280;12.400;2023-06-22T01:56:28;4.43;;;3.33;;
20381;SDS011;10350;51.280;12.400;2023-06-22T01:59:00;10.05;;;4.68;;
20381;SDS011;10350;51.280;12.400;2023-06-22T02:01:31;6.55;;;4.20;;
20381;SDS011;10350;51.280;12.400;2023-06-22T02:04:06;4.35;;;3.53;;
20381;SDS011;10350;51.280;12.400;2023-06-22T02:06:36;8.63;;;3.50;;
20381;SDS011;10350;51.280;12.400;2023-06-22T02:09:06;6.38;;;3.65;;
20381;SDS011;10350;51.280;12.400;2023-06-22T02:11:33;4.20;;;3.22;;
20381;SDS011;10350;51.280;12.400;2023-06-22T02:14:00;6.97;;;3.28;;
20381;SDS011;10350;51.280;12.400;2023-06-22T02:16:26;8.18;;;4.00;;
20381;SDS011;10350;51.280;12.400;2023-06-22T02:18:55;5.20;;;3.58;;
20381;SDS011;10350;51.280;12.400;2023-06-22T02:21:26;5.70;;;4.03;;
20381;SDS011;10350;51.280;12.400;2023-06-22T02:23:52;8.05;;;3.70;;
20381;SDS011;10350;51.280;12.400;2023-06-22T02:26:18;7.40;;;3.80;;
20381;SDS011;10350;51.280;12.400;2023-06-22T02:28:44;5.78;;;3.90;;
20381;SDS011;10350;51.280;12.400;2023-06-22T02:31:11;10.27;;;4.20;;
20381;SDS011;10350;51.280;12.400;2023-06-22T02:33:37;7.15;;;3.30;;
20381;SDS011;10350;51.280;12.400;2023-06-22T02:36:03;5.68;;;4.20;;
20381;SDS011;10350;51.280;12.400;2023-06-22T02:38:30;10.57;;;4.77;;
20381;SDS011;10350;51.280;12.400;2023-06-22T02:40:59;4.80;;;3.78;;
20381;SDS011;10350;51.280;12.400;2023-06-22T02:43:25;5.20;;;4.00;;
20381;SDS011;10350;51.280;12.400;2023-06-22T02:45:51;11.85;;;4.45;;
20381;SDS011;10350;51.280;12.400;2023-06-22T02:48:17;9.13;;;3.92;;
20381;SDS011;10350;51.280;12.400;2023-06-22T02:50:43;6.63;;;4.60;;
20381;SDS011;10350;51.280;12.400;2023-06-22T02:53:09;5.30;;;3.97;;
20381;SDS011;10350;51.280;12.400;2023-06-22T02:55:35;5.50;;;4.13;;
20381;SDS011;10350;51.280;12.400;2023-06-22T02:58:01;6.55;;;4.63;;
20381;SDS011;10350;51.280;12.400;2023-06-22T03:00:29;6.70;;;3.92;;
20381;SDS011;10350;51.280;12.400;2023-06-22T03:02:55;5.97;;;4.60;;
20381;SDS011;10350;51.280;12.400;2023-06-22T03:05:22;5.13;;;3.78;;
20381;SDS011;10350;51.280;12.400;2023-06-22T03:07:48;9.52;;;4.65;;
20381;SDS011;10350;51.280;12.400;2023-06-22T03:10:14;8.70;;;4.75;;
20381;SDS011;10350;51.280;12.400;2023-06-22T03:12:40;6.50;;;4.78;;
20381;SDS011;10350;51.280;12.400;2023-06-22T03:15:07;6.60;;;4.60;;
20381;SDS011;10350;51.280;12.400;2023-06-22T03:17:34;7.80;;;4.30;;
20381;SDS011;10350;51.280;12.400;2023-06-22T03:20:00;5.68;;;3.83;;
20381;SDS011;10350;51.280;12.400;2023-06-22T03:22:28;9.45;;;3.83;;
20381;SDS011;10350;51.280;12.400;2023-06-22T03:24:54;9.90;;;4.40;;
20381;SDS011;10350;51.280;12.400;2023-06-22T03:27:20;9.77;;;5.28;;
20381;SDS011;10350;51.280;12.400;2023-06-22T03:29:46;7.65;;;4.78;;
20381;SDS011;10350;51.280;12.400;2023-06-22T03:32:12;6.43;;;3.85;;
20381;SDS011;10350;51.280;12.400;2023-06-22T03:34:38;11.55;;;5.40;;
20381;SDS011;10350;51.280;12.400;2023-06-22T03:37:04;6.13;;;4.28;;
20381;SDS011;10350;51.280;12.400;2023-06-22T03:39:31;6.13;;;4.57;;
20381;SDS011;10350;51.280;12.400;2023-06-22T03:41:57;6.35;;;4.65;;
20381;SDS011;10350;51.280;12.400;2023-06-22T03:44:23;5.93;;;4.82;;
20381;SDS011;10350;51.280;12.400;2023-06-22T03:46:49;8.32;;;4.65;;
20381;SDS011;10350;51.280;12.400;2023-06-22T03:49:15;7.20;;;4.88;;
20381;SDS011;10350;51.280;12.400;2023-06-22T03:51:41;7.57;;;4.65;;
20381;SDS011;10350;51.280;12.400;2023-06-22T03:54:06;9.60;;;4.82;;
20381;SDS011;10350;51.280;12.400;2023-06-22T03:56:32;7.15;;;4.70;;
20381;SDS011;10350;51.280;12.400;2023-06-22T03:58:58;8.50;;;5.05;;
20381;SDS011;10350;51.280;12.400;2023-06-22T04:01:24;7.10;;;4.80;;
20381;SDS011;10350;51.280;12.400;2023-06-22T04:03:50;10.00;;;4.78;;
20381;SDS011;10350;51.280;12.400;2023-06-22T04:06:17;6.40;;;4.53;;
20381;SDS011;10350;51.280;12.400;2023-06-22T04:08:44;6.18;;;4.35;;
20381;SDS011;10350;51.280;12.400;2023-06-22T04:11:13;7.85;;;4.45;;
20381;SDS011;10350;51.280;12.400;2023-06-22T04:13:39;12.02;;;5.35;;
20381;SDS011;10350;51.280;12.400;2023-06-22T04:16:05;10.45;;;5.45;;
20381;SDS011;10350;51.280;12.400;2023-06-22T04:18:31;7.10;;;5.13;;
20381;SDS011;10350;51.280;12.400;2023-06-22T04:20:57;7.68;;;5.40;;
20381;SDS011;10350;51.280;12.400;2023-06-22T04:23:22;8.75;;;5.45;;
20381;SDS011;10350;51.280;12.400;2023-06-22T04:25:48;9.48;;;6.00;;
20381;SDS011;10350;51.280;12.400;2023-06-22T04:28:16;12.05;;;6.55;;
20381;SDS011;10350;51.280;12.400;2023-06-22T04:30:44;7.78;;;5.53;;
20381;SDS011;10350;51.280;12.400;2023-06-22T04:33:14;9.02;;;5.80;;
20381;SDS011;10350;51.280;12.400;2023-06-22T04:35:40;9.38;;;6.00;;
20381;SDS011;10350;51.280;12.400;2023-06-22T04:38:09;11.32;;;7.88;;
20381;SDS011;10350;51.280;12.400;2023-06-22T04:40:38;11.30;;;7.30;;
20381;SDS011;10350;51.280;12.400;2023-06-22T04:43:04;12.52;;;8.38;;
20381;SDS011;10350;51.280;12.400;2023-06-22T04:45:31;8.40;;;6.03;;
20381;SDS011;10350;51.280;12.400;2023-06-22T04:50:48;15.02;;;8.50;;
20381;SDS011;10350;51.280;12.400;2023-06-22T04:53:14;11.25;;;7.32;;
20381;SDS011;10350;51.280;12.400;2023-06-22T04:55:40;12.60;;;7.85;;
20381;SDS011;10350;51.280;12.400;2023-06-22T04:58:10;15.07;;;8.05;;
20381;SDS011;10350;51.280;12.400;2023-06-22T05:00:37;10.48;;;7.18;;
20381;SDS011;10350;51.280;12.400;2023-06-22T05:03:03;11.73;;;7.50;;
20381;SDS011;10350;51.280;12.400;2023-06-22T05:05:35;19.35;;;7.80;;
20381;SDS011;10350;51.280;12.400;2023-06-22T05:08:01;11.43;;;7.45;;
20381;SDS011;10350;51.280;12.400;2023-06-22T05:10:27;11.15;;;7.97;;
20381;SDS011;10350;51.280;12.400;2023-06-22T05:12:53;11.82;;;7.60;;
20381;SDS011;10350;51.280;12.400;2023-06-22T05:15:19;10.90;;;7.70;;
20381;SDS011;10350;51.280;12.400;2023-06-22T05:17:47;12.40;;;7.82;;
20381;SDS011;10350;51.280;12.400;2023-06-22T05:20:13;10.07;;;7.13;;
20381;SDS011;10350;51.280;12.400;2023-06-22T05:22:39;11.23;;;7.80;;
20381;SDS011;10350;51.280;12.400;2023-06-22T05:25:07;15.40;;;7.78;;
20381;SDS011;10350;51.280;12.400;2023-06-22T05:27:35;10.18;;;6.65;;
20381;SDS011;10350;51.280;12.400;2023-06-22T05:30:06;10.00;;;6.90;;
20381;SDS011;10350;51.280;12.400;2023-06-22T05:32:32;9.98;;;7.72;;
20381;SDS011;10350;51.280;12.400;2023-06-22T05:34:58;15.25;;;7.38;;
20381;SDS011;10350;51.280;12.400;2023-06-22T05:37:24;9.50;;;7.30;;
20381;SDS011;10350;51.280;12.400;2023-06-22T05:39:50;9.98;;;6.40;;
20381;SDS011;10350;51.280;12.400;2023-06-22T05:42:16;8.43;;;6.45;;
20381;SDS011;10350;51.280;12.400;2023-06-22T05:44:42;8.90;;;7.22;;
20381;SDS011;10350;51.280;12.400;2023-06-22T05:47:08;11.07;;;7.22;;
20381;SDS011;10350;51.280;12.400;2023-06-22T05:49:34;10.15;;;6.65;;
20381;SDS011;10350;51.280;12.400;2023-06-22T05:52:01;9.68;;;6.68;;
20381;SDS011;10350;51.280;12.400;2023-06-22T05:54:27;10.07;;;7.13;;
20381;SDS011;10350;51.280;12.400;2023-06-22T05:56:53;10.00;;;6.35;;
20381;SDS011;10350;51.280;12.400;2023-06-22T05:59:19;7.53;;;5.82;;
20381;SDS011;10350;51.280;12.400;2023-06-22T06:01:45;9.88;;;7.00;;
20381;SDS011;10350;51.280;12.400;2023-06-22T06:04:14;13.43;;;8.15;;
20381;SDS011;10350;51.280;12.400;2023-06-22T06:06:40;9.38;;;6.75;;
20381;SDS011;10350;51.280;12.400;2023-06-22T06:09:06;12.52;;;6.55;;
20381;SDS011;10350;51.280;12.400;2023-06-22T06:11:32;10.55;;;6.93;;
20381;SDS011;10350;51.280;12.400;2023-06-22T06:13:58;8.60;;;6.38;;
20381;SDS011;10350;51.280;12.400;2023-06-22T06:16:24;9.90;;;6.47;;
20381;SDS011;10350;51.280;12.400;2023-06-22T06:18:51;10.52;;;5.82;;
20381;SDS011;10350;51.280;12.400;2023-06-22T06:21:18;7.05;;;5.40;;
20381;SDS011;10350;51.280;12.400;2023-06-22T06:23:44;8.50;;;5.43;;
20381;SDS011;10350;51.280;12.400;2023-06-22T06:26:10;6.78;;;5.22;;
20381;SDS011;10350;51.280;12.400;2023-06-22T06:28:36;8.38;;;6.22;;
20381;SDS011;10350;51.280;12.400;2023-06-22T06:31:02;7.88;;;5.43;;
20381;SDS011;10350;51.280;12.400;2023-06-22T06:33:32;9.25;;;6.28;;
20381;SDS011;10350;51.280;12.400;2023-06-22T06:35:57;9.13;;;5.18;;
20381;SDS011;10350;51.280;12.400;2023-06-22T06:38:26;11.63;;;6.18;;
20381;SDS011;10350;51.280;12.400;2023-06-22T06:40:53;7.25;;;5.35;;
20381;SDS011;10350;51.280;12.400;2023-06-22T06:43:19;8.77;;;5.13;;
20381;SDS011;10350;51.280;12.400;2023-06-22T06:45:45;9.48;;;5.28;;
20381;SDS011;10350;51.280;12.400;2023-06-22T06:48:11;7.28;;;4.65;;
20381;SDS011;10350;51.280;12.400;2023-06-22T06:50:37;8.30;;;5.07;;
20381;SDS011;10350;51.280;12.400;2023-06-22T06:53:03;8.90;;;5.55;;
20381;SDS011;10350;51.280;12.400;2023-06-22T06:55:31;6.32;;;4.93;;
20381;SDS011;10350;51.280;12.400;2023-06-22T06:57:58;7.87;;;5.23;;
20381;SDS011;10350;51.280;12.400;2023-06-22T07:00:24;7.32;;;4.93;;
20381;SDS011;10350;51.280;12.400;2023-06-22T07:02:50;7.38;;;5.65;;
20381;SDS011;10350;51.280;12.400;2023-06-22T07:05:16;6.53;;;5.28;;
20381;SDS011;10350;51.280;12.400;2023-06-22T07:07:42;8.07;;;5.38;;
20381;SDS011;10350;51.280;12.400;2023-06-22T07:10:08;7.13;;;4.80;;
20381;SDS011;10350;51.280;12.400;2023-06-22T07:12:34;8.10;;;5.63;;
20381;SDS011;10350;51.280;12.400;2023-06-22T07:15:02;7.70;;;5.25;;
20381;SDS011;10350;51.280;12.400;2023-06-22T07:17:28;7.15;;;4.60;;
20381;SDS011;10350;51.280;12.400;2023-06-22T07:19:54;6.15;;;5.18;;
20381;SDS011;10350;51.280;12.400;2023-06-22T07:22:20;7.03;;;4.30;;
20381;SDS011;10350;51.280;12.400;2023-06-22T07:24:46;5.18;;;4.32;;
20381;SDS011;10350;51.280;12.400;2023-06-22T07:27:12;7.55;;;4.72;;
20381;SDS011;10350;51.280;12.400;2023-06-22T07:29:41;10.77;;;4.88;;
20381;SDS011;10350;51.280;12.400;2023-06-22T07:32:08;5.80;;;4.80;;
20381;SDS011;10350;51.280;12.400;2023-06-22T07:34:34;6.15;;;4.47;;
20381;SDS011;10350;51.280;12.400;2023-06-22T07:37:00;6.97;;;5.15;;
20381;SDS011;10350;51.280;12.400;2023-06-22T07:39:26;11.60;;;4.75;;
20381;SDS011;10350;51.280;12.400;2023-06-22T07:41:53;8.50;;;5.03;;
20381;SDS011;10350;51.280;12.400;2023-06-22T07:44:19;5.57;;;4.68;;
20381;SDS011;10350;51.280;12.400;2023-06-22T07:46:45;6.43;;;5.18;;
20381;SDS011;10350;51.280;12.400;2023-06-22T07:49:11;6.70;;;5.35;;
20381;SDS011;10350;51.280;12.400;2023-06-22T07:51:37;6.10;;;4.93;;
20381;SDS011;10350;51.280;12.400;2023-06-22T07:54:03;5.80;;;4.22;;
20381;SDS011;10350;51.280;12.400;2023-06-22T07:56:29;10.32;;;5.30;;
20381;SDS011;10350;51.280;12.400;2023-06-22T07:58:55;7.38;;;4.45;;
20381;SDS011;10350;51.280;12.400;2023-06-22T08:03:49;6.25;;;4.90;;
20381;SDS011;10350;51.280;12.400;2023-06-22T08:06:15;5.15;;;4.35;;
20381;SDS011;10350;51.280;12.400;2023-06-22T08:08:41;4.35;;;3.95;;
20381;SDS011;10350;51.280;12.400;2023-06-22T08:11:08;6.30;;;4.55;;
20381;SDS011;10350;51.280;12.400;2023-06-22T08:13:34;4.70;;;4.20;;
20381;SDS011;10350;51.280;12.400;2023-06-22T08:16:00;6.07;;;4.95;;
20381;SDS011;10350;51.280;12.400;2023-06-22T08:18:26;5.20;;;4.22;;
20381;SDS011;10350;51.280;12.400;2023-06-22T08:20:52;7.18;;;5.10;;
20381;SDS011;10350;51.280;12.400;2023-06-22T08:23:18;4.90;;;4.43;;
20381;SDS011;10350;51.280;12.400;2023-06-22T08:25:44;8.07;;;4.38;;
20381;SDS011;10350;51.280;12.400;2023-06-22T08:28:10;6.65;;;4.38;;
20381;SDS011;10350;51.280;12.400;2023-06-22T08:30:36;4.75;;;4.20;;
20381;SDS011;10350;51.280;12.400;2023-06-22T08:33:02;5.88;;;4.63;;
20381;SDS011;10350;51.280;12.400;2023-06-22T08:35:28;5.80;;;4.55;;
20381;SDS011;10350;51.280;12.400;2023-06-22T08:37:54;5.40;;;4.25;;
20381;SDS011;10350;51.280;12.400;2023-06-22T08:42:47;6.18;;;3.85;;
20381;SDS011;10350;51.280;12.400;2023-06-22T08:45:14;5.07;;;4.55;;
20381;SDS011;10350;51.280;12.400;2023-06-22T08:47:40;5.25;;;4.03;;
20381;SDS011;10350;51.280;12.400;2023-06-22T08:50:07;6.95;;;5.70;;
20381;SDS011;10350;51.280;12.400;2023-06-22T08:52:33;5.38;;;4.18;;
20381;SDS011;10350;51.280;12.400;2023-06-22T08:55:00;6.13;;;4.72;;
20381;SDS011;10350;51.280;12.400;2023-06-22T08:57:26;5.55;;;4.60;;
20381;SDS011;10350;51.280;12.400;2023-06-22T08:59:52;9.97;;;5.57;;
20381;SDS011;10350;51.280;12.400;2023-06-22T09:02:19;5.80;;;5.10;;
20381;SDS011;10350;51.280;12.400;2023-06-22T09:04:48;8.98;;;5.55;;
20381;SDS011;10350;51.280;12.400;2023-06-22T09:07:14;5.93;;;4.75;;
20381;SDS011;10350;51.280;12.400;2023-06-22T09:09:47;5.10;;;4.50;;
20381;SDS011;10350;51.280;12.400;2023-06-22T09:12:13;5.75;;;4.90;;
20381;SDS011;10350;51.280;12.400;2023-06-22T09:14:39;7.32;;;5.05;;
20381;SDS011;10350;51.280;12.400;2023-06-22T09:17:05;5.07;;;3.92;;
20381;SDS011;10350;51.280;12.400;2023-06-22T09:19:31;5.05;;;4.55;;
20381;SDS011;10350;51.280;12.400;2023-06-22T09:21:57;4.82;;;4.10;;
20381;SDS011;10350;51.280;12.400;2023-06-22T09:24:23;7.07;;;4.15;;
20381;SDS011;10350;51.280;12.400;2023-06-22T09:26:49;4.82;;;4.32;;
20381;SDS011;10350;51.280;12.400;2023-06-22T09:29:15;5.80;;;4.28;;
20381;SDS011;10350;51.280;12.400;2023-06-22T09:31:41;5.43;;;4.85;;
20381;SDS011;10350;51.280;12.400;2023-06-22T09:34:07;6.72;;;4.28;;
20381;SDS011;10350;51.280;12.400;2023-06-22T09:36:33;9.15;;;4.00;;
20381;SDS011;10350;51.280;12.400;2023-06-22T09:38:59;4.82;;;3.80;;
20381;SDS011;10350;51.280;12.400;2023-06-22T09:41:30;7.75;;;4.22;;
20381;SDS011;10350;51.280;12.400;2023-06-22T09:43:56;4.75;;;4.32;;
20381;SDS011;10350;51.280;12.400;2023-06-22T09:46:22;6.03;;;4.18;;
20381;SDS011;10350;51.280;12.400;2023-06-22T09:48:50;6.03;;;3.90;;
20381;SDS011;10350;51.280;12.400;2023-06-22T09:51:16;4.72;;;4.25;;
20381;SDS011;10350;51.280;12.400;2023-06-22T09:56:09;7.55;;;3.90;;
20381;SDS011;10350;51.280;12.400;2023-06-22T09:58:43;5.60;;;4.03;;
20381;SDS011;10350;51.280;12.400;2023-06-22T10:01:09;5.95;;;4.47;;
20381;SDS011;10350;51.280;12.400;2023-06-22T10:03:35;4.30;;;3.85;;
20381;SDS011;10350;51.280;12.400;2023-06-22T10:06:02;5.20;;;4.22;;
20381;SDS011;10350;51.280;12.400;2023-06-22T10:08:28;9.18;;;4.13;;
20381;SDS011;10350;51.280;12.400;2023-06-22T10:10:54;4.65;;;4.00;;
20381;SDS011;10350;51.280;12.400;2023-06-22T10:13:20;3.83;;;3.53;;
20381;SDS011;10350;51.280;12.400;2023-06-22T10:15:46;4.68;;;4.20;;
20381;SDS011;10350;51.280;12.400;2023-06-22T10:18:16;4.20;;;3.47;;
20381;SDS011;10350;51.280;12.400;2023-06-22T10:20:42;4.97;;;4.47;;
20381;SDS011;10350;51.280;12.400;2023-06-22T10:23:08;4.15;;;3.85;;
20381;SDS011;10350;51.280;12.400;2023-06-22T10:25:34;4.25;;;3.85;;
20381;SDS011;10350;51.280;12.400;2023-06-22T10:28:00;5.28;;;4.47;;
20381;SDS011;10350;51.280;12.400;2023-06-22T10:30:26;5.80;;;4.43;;
20381;SDS011;10350;51.280;12.400;2023-06-22T10:32:53;4.72;;;4.28;;
20381;SDS011;10350;51.280;12.400;2023-06-22T10:35:19;5.20;;;3.92;;
20381;SDS011;10350;51.280;12.400;2023-06-22T10:37:46;5.43;;;4.28;;
20381;SDS011;10350;51.280;12.400;2023-06-22T10:40:24;4.55;;;4.15;;
20381;SDS011;10350;51.280;12.400;2023-06-22T10:43:13;4.78;;;4.38;;
20381;SDS011;10350;51.280;12.400;2023-06-22T10:45:40;9.68;;;4.30;;
20381;SDS011;10350;51.280;12.400;2023-06-22T10:48:06;4.57;;;4.18;;
20381;SDS011;10350;51.280;12.400;2023-06-22T10:50:32;6.22;;;4.10;;
20381;SDS011;10350;51.280;12.400;2023-06-22T10:52:58;3.92;;;3.58;;
20381;SDS011;10350;51.280;12.400;2023-06-22T10:55:24;4.25;;;3.85;;
20381;SDS011;10350;51.280;12.400;2023-06-22T10:57:50;4.95;;;4.38;;
20381;SDS011;10350;51.280;12.400;2023-06-22T11:00:17;4.40;;;4.00;;
20381;SDS011;10350;51.280;12.400;2023-06-22T11:02:43;4.95;;;4.43;;
20381;SDS011;10350;51.280;12.400;2023-06-22T11:05:09;4.95;;;4.45;;
20381;SDS011;10350;51.280;12.400;2023-06-22T11:07:36;5.47;;;4.93;;
20381;SDS011;10350;51.280;12.400;2023-06-22T11:10:05;5.38;;;4.88;;
20381;SDS011;10350;51.280;12.400;2023-06-22T11:12:31;5.10;;;4.60;;
20381;SDS011;10350;51.280;12.400;2023-06-22T11:14:57;5.10;;;4.70;;
20381;SDS011;10350;51.280;12.400;2023-06-22T11:17:23;5.43;;;4.93;;
20381;SDS011;10350;51.280;12.400;2023-06-22T11:19:50;5.35;;;4.85;;
20381;SDS011;10350;51.280;12.400;2023-06-22T11:22:16;5.40;;;4.32;;
20381;SDS011;10350;51.280;12.400;2023-06-22T11:24:42;4.47;;;4.03;;
20381;SDS011;10350;51.280;12.400;2023-06-22T11:27:08;4.28;;;3.83;;
20381;SDS011;10350;51.280;12.400;2023-06-22T11:29:34;4.97;;;4.40;;
20381;SDS011;10350;51.280;12.400;2023-06-22T11:32:00;4.93;;;4.50;;
20381;SDS011;10350;51.280;12.400;2023-06-22T11:34:26;6.15;;;4.88;;
20381;SDS011;10350;51.280;12.400;2023-06-22T11:36:53;4.97;;;4.53;;
20381;SDS011;10350;51.280;12.400;2023-06-22T11:39:19;5.60;;;4.60;;
20381;SDS011;10350;51.280;12.400;2023-06-22T11:41:45;4.57;;;4.18;;
20381;SDS011;10350;51.280;12.400;2023-06-22T11:44:11;6.65;;;4.78;;
20381;SDS011;10350;51.280;12.400;2023-06-22T11:46:36;7.63;;;4.82;;
20381;SDS011;10350;51.280;12.400;2023-06-22T11:49:02;4.93;;;4.43;;
20381;SDS011;10350;51.280;12.400;2023-06-22T11:51:28;4.63;;;4.18;;
20381;SDS011;10350;51.280;12.400;2023-06-22T11:53:56;5.05;;;4.50;;
20381;SDS011;10350;51.280;12.400;2023-06-22T11:56:22;4.75;;;4.00;;
20381;SDS011;10350;51.280;12.400;2023-06-22T11:58:48;4.60;;;4.20;;
20381;SDS011;10350;51.280;12.400;2023-06-22T12:01:14;5.07;;;4.25;;
20381;SDS011;10350;51.280;12.400;2023-06-22T12:03:41;5.57;;;4.60;;
20381;SDS011;10350;51.280;12.400;2023-06-22T12:06:08;4.75;;;4.35;;
20381;SDS011;10350;51.280;12.400;2023-06-22T12:08:35;5.03;;;4.25;;
20381;SDS011;10350;51.280;12.400;2023-06-22T12:11:04;4.93;;;4.40;;
20381;SDS011;10350;51.280;12.400;2023-06-22T12:13:30;4.95;;;4.47;;
20381;SDS011;10350;51.280;12.400;2023-06-22T12:15:56;4.55;;;4.15;;
20381;SDS011;10350;51.280;12.400;2023-06-22T12:18:23;4.53;;;4.13;;
20381;SDS011;10350;51.280;12.400;2023-06-22T12:20:49;4.95;;;4.22;;
20381;SDS011;10350;51.280;12.400;2023-06-22T12:23:15;4.65;;;4.22;;
20381;SDS011;10350;51.280;12.400;2023-06-22T12:25:41;5.10;;;4.68;;
20381;SDS011;10350;51.280;12.400;2023-06-22T12:28:07;4.97;;;4.47;;
20381;SDS011;10350;51.280;12.400;2023-06-22T12:30:34;5.38;;;4.55;;
20381;SDS011;10350;51.280;12.400;2023-06-22T12:33:00;4.50;;;4.05;;
20381;SDS011;10350;51.280;12.400;2023-06-22T12:35:29;6.68;;;4.63;;
20381;SDS011;10350;51.280;12.400;2023-06-22T12:37:55;4.95;;;4.00;;
20381;SDS011;10350;51.280;12.400;2023-06-22T12:40:21;5.10;;;4.20;;
20381;SDS011;10350;51.280;12.400;2023-06-22T12:42:47;4.82;;;4.32;;
20381;SDS011;10350;51.280;12.400;2023-06-22T12:45:14;6.57;;;4.43;;
20381;SDS011;10350;51.280;12.400;2023-06-22T12:47:40;6.18;;;4.53;;
20381;SDS011;10350;51.280;12.400;2023-06-22T12:50:06;5.30;;;4.10;;
20381;SDS011;10350;51.280;12.400;2023-06-22T12:52:33;5.97;;;4.93;;
20381;SDS011;10350;51.280;12.400;2023-06-22T12:54:59;5.85;;;4.93;;
20381;SDS011;10350;51.280;12.400;2023-06-22T12:57:25;4.63;;;3.95;;
20381;SDS011;10350;51.280;12.400;2023-06-22T12:59:50;4.85;;;4.43;;
20381;SDS011;10350;51.280;12.400;2023-06-22T13:02:16;6.40;;;5.00;;
20381;SDS011;10350;51.280;12.400;2023-06-22T13:04:42;11.50;;;4.78;;
20381;SDS011;10350;51.280;12.400;2023-06-22T13:07:08;5.00;;;4.60;;
20381;SDS011;10350;51.280;12.400;2023-06-22T13:09:35;4.65;;;4.25;;
20381;SDS011;10350;51.280;12.400;2023-06-22T13:12:01;5.20;;;4.70;;
20381;SDS011;10350;51.280;12.400;2023-06-22T13:14:27;4.90;;;4.47;;
20381;SDS011;10350;51.280;12.400;2023-06-22T13:16:53;4.68;;;4.28;;
20381;SDS011;10350;51.280;12.400;2023-06-22T13:19:19;4.55;;;3.67;;
20381;SDS011;10350;51.280;12.400;2023-06-22T13:21:45;4.53;;;4.10;;
20381;SDS011;10350;51.280;12.400;2023-06-22T13:24:14;5.55;;;4.93;;
20381;SDS011;10350;51.280;12.400;2023-06-22T13:26:41;5.22;;;4.35;;
20381;SDS011;10350;51.280;12.400;2023-06-22T13:29:07;5.55;;;4.10;;
20381;SDS011;10350;51.280;12.400;2023-06-22T13:31:33;5.00;;;4.50;;
20381;SDS011;10350;51.280;12.400;2023-06-22T13:33:59;5.00;;;4.45;;
20381;SDS011;10350;51.280;12.400;2023-06-22T13:36:25;5.30;;;4.80;;
20381;SDS011;10350;51.280;12.400;2023-06-22T13:38:51;5.45;;;4.95;;
20381;SDS011;10350;51.280;12.400;2023-06-22T13:41:17;5.50;;;4.75;;
20381;SDS011;10350;51.280;12.400;2023-06-22T13:43:43;4.95;;;4.30;;
20381;SDS011;10350;51.280;12.400;2023-06-22T13:46:09;4.90;;;4.43;;
20381;SDS011;10350;51.280;12.400;2023-06-22T13:48:35;4.88;;;3.92;;
20381;SDS011;10350;51.280;12.400;2023-06-22T13:51:01;4.22;;;3.83;;
20381;SDS011;10350;51.280;12.400;2023-06-22T13:53:27;5.50;;;4.50;;
20381;SDS011;10350;51.280;12.400;2023-06-22T13:55:53;5.68;;;4.43;;
20381;SDS011;10350;51.280;12.400;2023-06-22T13:58:19;4.93;;;4.43;;
20381;SDS011;10350;51.280;12.400;2023-06-22T14:00:46;5.25;;;4.75;;
20381;SDS011;10350;51.280;12.400;2023-06-22T14:03:12;5.60;;;5.00;;
20381;SDS011;10350;51.280;12.400;2023-06-22T14:05:44;5.40;;;4.90;;
20381;SDS011;10350;51.280;12.400;2023-06-22T14:08:10;5.60;;;4.80;;
20381;SDS011;10350;51.280;12.400;2023-06-22T14:10:36;6.68;;;5.10;;
20381;SDS011;10350;51.280;12.400;2023-06-22T14:13:02;6.18;;;4.20;;
20381;SDS011;10350;51.280;12.400;2023-06-22T14:15:30;9.68;;;4.53;;
20381;SDS011;10350;51.280;12.400;2023-06-22T14:17:57;4.60;;;4.20;;
20381;SDS011;10350;51.280;12.400;2023-06-22T14:20:23;5.15;;;4.65;;
20381;SDS011;10350;51.280;12.400;2023-06-22T14:22:49;5.95;;;5.15;;
20381;SDS011;10350;51.280;12.400;2023-06-22T14:25:15;4.82;;;4.13;;
20381;SDS011;10350;51.280;12.400;2023-06-22T14:27:41;6.63;;;4.97;;
20381;SDS011;10350;51.280;12.400;2023-06-22T14:30:09;8.60;;;4.55;;
20381;SDS011;10350;51.280;12.400;2023-06-22T14:32:35;8.13;;;4.80;;
20381;SDS011;10350;51.280;12.400;2023-06-22T14:35:02;5.35;;;4.32;;
20381;SDS011;10350;51.280;12.400;2023-06-22T14:37:28;6.05;;;4.93;;
20381;SDS011;10350;51.280;12.400;2023-06-22T14:39:54;4.82;;;4.25;;
20381;SDS011;10350;51.280;12.400;2023-06-22T14:42:24;9.55;;;4.40;;